Aviation Digital Data Service (ADDS)

Output produced by METARs form (0640 UTC 24 March 2019)
found at http://www.aviationweather.gov/metar/data/
 
RCTP 240630Z 09007KT 050V120 9999 -RA FEW012 SCT025 BKN030 18/15 Q1016 NOSIG RMK A3002
TAF RCTP 240500Z 2406/2512 07010KT 8000 FEW012 BKN032 BKN060 
     TEMPO 2406/2412 5000 RA FEW010 BKN020 BKN050 
     BECMG 2412/2414 12005KT 
     TEMPO 2422/2502 31005KT 4000 RA SCT006 BKN011 BKN030 
     BECMG 2502/2504 02010KT FEW010 BKN016 BKN040 
     TEMPO 2505/2510 5000 RA
       
RCMQ 240630Z 21003KT 3200 -RA BR SCT004 BKN010 BKN040 19/18 Q1017 NOSIG RMK A3005 APCH CLD SCT004
TAF RCMQ 240500Z 2406/2506 36004KT 3200 -RA BR SCT004 BKN012 BKN030 TX20/2506Z
TN14/2421Z 
     TEMPO 2407/2412 5000 BR FEW006 BKN025 
     BECMG 2413/2416 8000 SCT010 BKN025 
     TEMPO 2418/2423 4000 -RA BR SCT006 BKN012 OVC016 
     BECMG 2500/2503 36008KT 4000 -RA BR SCT004 BKN012 BKN030
       
RCFN 240630Z 04006KT 360V090 9999 VCSH FEW035 BKN050 22/15 Q1019 NOSIG RMK A3009
TAF RCFN 240500Z 2406/2506 06008KT 9999 FEW015 BKN032 BKN060 
     TEMPO 2406/2410 07010G20KT 
     BECMG 2410/2412 35005KT 
     BECMG 2501/2503 09008KT
       
RCKH 240630Z 03005KT 330V120 9000 FEW016 SCT034 BKN054 23/17 Q1016 NOSIG RMK A3002
TAF RCKH 240500Z 2406/2512 29008KT 9999 FEW015 BKN032 BKN060 
     BECMG 2409/2411 34005KT 
     BECMG 2415/2417 5000 HZ 
     TEMPO 2421/2501 06005KT 3200 BR 
     BECMG 2501/2503 28008KT 7000 NSW
       
RCSS 240630Z 10013KT 8000 -RA FEW010 SCT025 BKN045 18/16 Q1016 NOSIG RMK A3002
TAF RCSS 240500Z 2406/2506 08012KT 8000 FEW012 BKN032 BKN060 
     TEMPO 2406/2412 5000 RA FEW010 BKN020 BKN050 
     BECMG 2412/2414 12005KT 
     TEMPO 2422/2502 31005KT 5000 RA FEW010 BKN016 BKN040 
     BECMG 2502/2504 08005KT
       
RCNN 240630Z 03002KT 6000 VCSH FEW010 BKN021 BKN040 18/15 Q1016 NOSIG RMK A3003 VCSH NW
TAF RCNN 240500Z 2406/2506 04005KT 7000 FEW010 SCT025 BKN050 TX22/2406Z
TN17/2420Z 
     BECMG 2407/2410 33008KT 
     BECMG 2412/2415 03004KT 
     BECMG 2420/2423 5000 -RA BR 
     BECMG 2501/2504 33008KT